sensor_id;sensor_type;location;lat;lon;timestamp;pressure;altitude;pressure_sealevel;temperature;humidity
13612;BME280;6877;51.436;6.774;2023-04-26T00:00:17;101388.47;;;1.53;95.42
13612;BME280;6877;51.436;6.774;2023-04-26T00:02:49;101392.69;;;1.51;95.41
13612;BME280;6877;51.436;6.774;2023-04-26T00:05:21;101396.94;;;1.49;95.47
13612;BME280;6877;51.436;6.774;2023-04-26T00:07:52;101393.41;;;1.46;95.19
13612;BME280;6877;51.436;6.774;2023-04-26T00:10:24;101392.38;;;1.39;95.30
13612;BME280;6877;51.436;6.774;2023-04-26T00:12:55;101392.28;;;1.36;95.99
13612;BME280;6877;51.436;6.774;2023-04-26T00:15:22;101391.25;;;1.31;96.03
13612;BME280;6877;51.436;6.774;2023-04-26T00:17:48;101394.56;;;1.27;96.36
13612;BME280;6877;51.436;6.774;2023-04-26T00:20:15;101391.06;;;1.25;96.72
13612;BME280;6877;51.436;6.774;2023-04-26T00:22:42;101386.75;;;1.24;96.92
13612;BME280;6877;51.436;6.774;2023-04-26T00:25:13;101380.75;;;1.25;97.58
13612;BME280;6877;51.436;6.774;2023-04-26T00:27:40;101378.78;;;1.16;96.71
13612;BME280;6877;51.436;6.774;2023-04-26T00:30:06;101379.50;;;1.10;97.46
13612;BME280;6877;51.436;6.774;2023-04-26T00:32:33;101382.88;;;1.09;98.39
13612;BME280;6877;51.436;6.774;2023-04-26T00:35:02;101385.31;;;1.05;97.98
13612;BME280;6877;51.436;6.774;2023-04-26T00:37:34;101386.09;;;1.02;98.03
13612;BME280;6877;51.436;6.774;2023-04-26T00:40:06;101387.75;;;1.00;98.88
13612;BME280;6877;51.436;6.774;2023-04-26T00:42:38;101387.72;;;0.99;98.79
13612;BME280;6877;51.436;6.774;2023-04-26T00:45:10;101373.16;;;1.01;99.27
13612;BME280;6877;51.436;6.774;2023-04-26T00:47:37;101380.84;;;0.99;98.84
13612;BME280;6877;51.436;6.774;2023-04-26T00:50:06;101378.22;;;0.98;98.84
13612;BME280;6877;51.436;6.774;2023-04-26T00:52:38;101381.03;;;1.05;100.00
13612;BME280;6877;51.436;6.774;2023-04-26T00:55:05;101381.97;;;1.07;99.84
13612;BME280;6877;51.436;6.774;2023-04-26T00:57:32;101376.84;;;1.09;99.87
13612;BME280;6877;51.436;6.774;2023-04-26T01:00:04;101381.13;;;1.08;99.50
13612;BME280;6877;51.436;6.774;2023-04-26T01:02:31;101374.06;;;1.01;99.54
13612;BME280;6877;51.436;6.774;2023-04-26T01:04:57;101379.31;;;1.04;100.00
13612;BME280;6877;51.436;6.774;2023-04-26T01:07:23;101378.41;;;1.04;100.00
13612;BME280;6877;51.436;6.774;2023-04-26T01:09:50;101377.63;;;1.06;100.00
13612;BME280;6877;51.436;6.774;2023-04-26T01:12:23;101379.31;;;1.04;100.00
13612;BME280;6877;51.436;6.774;2023-04-26T01:14:54;101377.31;;;0.96;100.00
13612;BME280;6877;51.436;6.774;2023-04-26T01:17:22;101376.97;;;0.85;100.00
13612;BME280;6877;51.436;6.774;2023-04-26T01:19:49;101379.34;;;0.79;100.00
13612;BME280;6877;51.436;6.774;2023-04-26T01:22:15;101377.66;;;0.79;100.00
13612;BME280;6877;51.436;6.774;2023-04-26T01:24:44;101390.38;;;0.75;100.00
13612;BME280;6877;51.436;6.774;2023-04-26T01:27:16;101387.63;;;0.68;100.00
13612;BME280;6877;51.436;6.774;2023-04-26T01:29:43;101388.44;;;0.67;100.00
13612;BME280;6877;51.436;6.774;2023-04-26T01:32:10;101387.59;;;0.67;100.00
13612;BME280;6877;51.436;6.774;2023-04-26T01:34:42;101393.50;;;0.64;100.00
13612;BME280;6877;51.436;6.774;2023-04-26T01:37:08;101387.69;;;0.70;100.00
13612;BME280;6877;51.436;6.774;2023-04-26T01:39:35;101385.03;;;0.68;100.00
13612;BME280;6877;51.436;6.774;2023-04-26T01:42:04;101385.50;;;0.57;100.00
13612;BME280;6877;51.436;6.774;2023-04-26T01:44:30;101381.75;;;0.45;100.00
13612;BME280;6877;51.436;6.774;2023-04-26T01:46:57;101390.03;;;0.37;100.00
13612;BME280;6877;51.436;6.774;2023-04-26T01:49:28;101385.50;;;0.30;100.00
13612;BME280;6877;51.436;6.774;2023-04-26T01:51:54;101391.28;;;0.22;100.00
13612;BME280;6877;51.436;6.774;2023-04-26T01:54:26;101385.00;;;0.14;100.00
13612;BME280;6877;51.436;6.774;2023-04-26T01:56:52;101381.25;;;0.06;100.00
13612;BME280;6877;51.436;6.774;2023-04-26T01:59:19;101389.69;;;0.01;100.00
13612;BME280;6877;51.436;6.774;2023-04-26T02:01:45;101383.91;;;0.08;100.00
13612;BME280;6877;51.436;6.774;2023-04-26T02:04:12;101388.06;;;0.04;100.00
13612;BME280;6877;51.436;6.774;2023-04-26T02:06:38;101388.81;;;0.00;100.00
13612;BME280;6877;51.436;6.774;2023-04-26T02:09:04;101390.47;;;-0.01;100.00
13612;BME280;6877;51.436;6.774;2023-04-26T02:11:31;101393.84;;;-0.03;100.00
13612;BME280;6877;51.436;6.774;2023-04-26T02:13:57;101392.78;;;-0.08;100.00
13612;BME280;6877;51.436;6.774;2023-04-26T02:16:29;101389.16;;;-0.13;100.00
13612;BME280;6877;51.436;6.774;2023-04-26T02:18:55;101384.13;;;-0.10;100.00
13612;BME280;6877;51.436;6.774;2023-04-26T02:21:26;101394.44;;;-0.10;100.00
13612;BME280;6877;51.436;6.774;2023-04-26T02:23:53;101389.50;;;-0.04;100.00
13612;BME280;6877;51.436;6.774;2023-04-26T02:26:25;101392.84;;;-0.07;100.00
13612;BME280;6877;51.436;6.774;2023-04-26T02:28:57;101397.00;;;-0.10;100.00
13612;BME280;6877;51.436;6.774;2023-04-26T02:31:28;101395.28;;;-0.10;100.00
13612;BME280;6877;51.436;6.774;2023-04-26T02:33:54;101390.03;;;-0.13;100.00
13612;BME280;6877;51.436;6.774;2023-04-26T02:36:21;101385.91;;;-0.09;100.00
13612;BME280;6877;51.436;6.774;2023-04-26T02:38:47;101391.28;;;-0.03;100.00
13612;BME280;6877;51.436;6.774;2023-04-26T02:41:14;101381.84;;;-0.03;100.00
13612;BME280;6877;51.436;6.774;2023-04-26T02:43:40;101387.09;;;0.01;100.00
13612;BME280;6877;51.436;6.774;2023-04-26T02:46:07;101393.25;;;0.06;100.00
13612;BME280;6877;51.436;6.774;2023-04-26T02:48:38;101381.47;;;0.12;100.00
13612;BME280;6877;51.436;6.774;2023-04-26T02:51:05;101385.09;;;0.17;100.00
13612;BME280;6877;51.436;6.774;2023-04-26T02:53:36;101381.88;;;0.25;100.00
13612;BME280;6877;51.436;6.774;2023-04-26T02:56:03;101384.56;;;0.28;100.00
13612;BME280;6877;51.436;6.774;2023-04-26T02:58:29;101394.06;;;0.29;100.00
13612;BME280;6877;51.436;6.774;2023-04-26T03:01:00;101379.31;;;0.25;100.00
13612;BME280;6877;51.436;6.774;2023-04-26T03:03:32;101377.69;;;0.27;100.00
13612;BME280;6877;51.436;6.774;2023-04-26T03:05:58;101374.44;;;0.32;100.00
13612;BME280;6877;51.436;6.774;2023-04-26T03:08:25;101378.72;;;0.32;100.00
13612;BME280;6877;51.436;6.774;2023-04-26T03:10:51;101375.78;;;0.21;100.00
13612;BME280;6877;51.436;6.774;2023-04-26T03:13:18;101375.25;;;0.06;100.00
13612;BME280;6877;51.436;6.774;2023-04-26T03:15:49;101374.06;;;-0.04;100.00
13612;BME280;6877;51.436;6.774;2023-04-26T03:18:17;101376.53;;;-0.07;100.00
13612;BME280;6877;51.436;6.774;2023-04-26T03:20:47;101373.94;;;-0.07;100.00
13612;BME280;6877;51.436;6.774;2023-04-26T03:23:18;101372.31;;;-0.05;100.00
13612;BME280;6877;51.436;6.774;2023-04-26T03:25:47;101368.28;;;0.03;100.00
13612;BME280;6877;51.436;6.774;2023-04-26T03:28:18;101368.50;;;0.09;100.00
13612;BME280;6877;51.436;6.774;2023-04-26T03:30:45;101368.38;;;0.05;100.00
13612;BME280;6877;51.436;6.774;2023-04-26T03:33:11;101367.50;;;0.04;100.00
13612;BME280;6877;51.436;6.774;2023-04-26T03:35:38;101365.66;;;0.00;100.00
13612;BME280;6877;51.436;6.774;2023-04-26T03:38:05;101365.25;;;-0.11;100.00
13612;BME280;6877;51.436;6.774;2023-04-26T03:40:36;101360.56;;;-0.22;100.00
13612;BME280;6877;51.436;6.774;2023-04-26T03:43:02;101359.44;;;-0.31;100.00
13612;BME280;6877;51.436;6.774;2023-04-26T03:45:29;101360.41;;;-0.27;100.00
13612;BME280;6877;51.436;6.774;2023-04-26T03:48:00;101359.75;;;-0.21;100.00
13612;BME280;6877;51.436;6.774;2023-04-26T03:50:31;101355.31;;;-0.26;100.00
13612;BME280;6877;51.436;6.774;2023-04-26T03:52:58;101361.13;;;-0.31;100.00
13612;BME280;6877;51.436;6.774;2023-04-26T03:55:24;101355.03;;;-0.33;100.00
13612;BME280;6877;51.436;6.774;2023-04-26T03:57:56;101358.66;;;-0.28;100.00
13612;BME280;6877;51.436;6.774;2023-04-26T04:00:27;101356.97;;;-0.28;100.00
13612;BME280;6877;51.436;6.774;2023-04-26T04:02:54;101347.47;;;-0.29;100.00
13612;BME280;6877;51.436;6.774;2023-04-26T04:05:20;101352.47;;;-0.33;100.00
13612;BME280;6877;51.436;6.774;2023-04-26T04:07:46;101364.47;;;-0.34;100.00
13612;BME280;6877;51.436;6.774;2023-04-26T04:10:15;101359.97;;;-0.39;100.00
13612;BME280;6877;51.436;6.774;2023-04-26T04:12:42;101363.25;;;-0.43;100.00
13612;BME280;6877;51.436;6.774;2023-04-26T04:15:09;101361.34;;;-0.49;100.00
13612;BME280;6877;51.436;6.774;2023-04-26T04:17:36;101362.38;;;-0.44;100.00
13612;BME280;6877;51.436;6.774;2023-04-26T04:20:02;101356.25;;;-0.24;100.00
13612;BME280;6877;51.436;6.774;2023-04-26T04:22:36;101363.75;;;-0.30;100.00
13612;BME280;6877;51.436;6.774;2023-04-26T04:25:09;101360.94;;;-0.36;100.00
13612;BME280;6877;51.436;6.774;2023-04-26T04:27:36;101366.19;;;-0.33;100.00
13612;BME280;6877;51.436;6.774;2023-04-26T04:30:04;101371.66;;;-0.24;100.00
13612;BME280;6877;51.436;6.774;2023-04-26T04:32:37;101372.94;;;-0.12;100.00
13612;BME280;6877;51.436;6.774;2023-04-26T04:35:10;101374.06;;;-0.04;100.00
13612;BME280;6877;51.436;6.774;2023-04-26T04:37:41;101384.66;;;0.05;100.00
13612;BME280;6877;51.436;6.774;2023-04-26T04:40:09;101387.66;;;0.17;100.00
13612;BME280;6877;51.436;6.774;2023-04-26T04:42:36;101381.13;;;0.27;100.00
13612;BME280;6877;51.436;6.774;2023-04-26T04:45:03;101374.53;;;0.35;100.00
13612;BME280;6877;51.436;6.774;2023-04-26T04:47:35;101384.22;;;0.42;100.00
13612;BME280;6877;51.436;6.774;2023-04-26T04:50:05;101380.97;;;0.48;100.00
13612;BME280;6877;51.436;6.774;2023-04-26T04:52:32;101389.00;;;0.57;100.00
13612;BME280;6877;51.436;6.774;2023-04-26T04:54:59;101390.09;;;0.65;100.00
13612;BME280;6877;51.436;6.774;2023-04-26T04:57:26;101395.50;;;0.73;100.00
13612;BME280;6877;51.436;6.774;2023-04-26T04:59:52;101392.31;;;0.82;100.00
13612;BME280;6877;51.436;6.774;2023-04-26T05:02:19;101402.31;;;0.98;100.00
13612;BME280;6877;51.436;6.774;2023-04-26T05:04:45;101404.66;;;1.19;100.00
13612;BME280;6877;51.436;6.774;2023-04-26T05:07:17;101395.63;;;1.33;100.00
13612;BME280;6877;51.436;6.774;2023-04-26T05:09:48;101401.09;;;1.44;100.00
13612;BME280;6877;51.436;6.774;2023-04-26T05:12:15;101408.97;;;1.49;100.00
13612;BME280;6877;51.436;6.774;2023-04-26T05:14:41;101407.47;;;1.57;100.00
13612;BME280;6877;51.436;6.774;2023-04-26T05:17:13;101410.50;;;1.72;100.00
13612;BME280;6877;51.436;6.774;2023-04-26T05:19:39;101407.47;;;1.87;100.00
13612;BME280;6877;51.436;6.774;2023-04-26T05:22:05;101406.00;;;1.97;100.00
13612;BME280;6877;51.436;6.774;2023-04-26T05:24:32;101419.28;;;2.11;100.00
13612;BME280;6877;51.436;6.774;2023-04-26T05:26:58;101415.53;;;2.31;100.00
13612;BME280;6877;51.436;6.774;2023-04-26T05:29:30;101428.38;;;2.63;100.00
13612;BME280;6877;51.436;6.774;2023-04-26T05:31:56;101425.09;;;3.06;100.00
13612;BME280;6877;51.436;6.774;2023-04-26T05:34:23;101420.44;;;3.70;98.23
13612;BME280;6877;51.436;6.774;2023-04-26T05:36:50;101421.31;;;4.16;93.90
13612;BME280;6877;51.436;6.774;2023-04-26T05:39:16;101423.53;;;4.43;91.44
13612;BME280;6877;51.436;6.774;2023-04-26T05:41:47;101428.28;;;4.67;90.72
13612;BME280;6877;51.436;6.774;2023-04-26T05:44:14;101430.53;;;5.02;89.29
13612;BME280;6877;51.436;6.774;2023-04-26T05:46:40;101429.41;;;5.45;87.36
13612;BME280;6877;51.436;6.774;2023-04-26T05:49:07;101427.16;;;5.71;84.24
13612;BME280;6877;51.436;6.774;2023-04-26T05:51:38;101431.69;;;5.88;82.94
13612;BME280;6877;51.436;6.774;2023-04-26T05:54:04;101432.13;;;6.26;82.47
13612;BME280;6877;51.436;6.774;2023-04-26T05:56:31;101433.44;;;6.72;80.01
13612;BME280;6877;51.436;6.774;2023-04-26T05:58:57;101444.03;;;6.99;77.71
13612;BME280;6877;51.436;6.774;2023-04-26T06:01:28;101446.59;;;6.94;75.33
13612;BME280;6877;51.436;6.774;2023-04-26T06:04:00;101444.63;;;6.62;76.26
13612;BME280;6877;51.436;6.774;2023-04-26T06:06:26;101438.31;;;6.37;77.69
13612;BME280;6877;51.436;6.774;2023-04-26T06:08:53;101433.72;;;6.13;78.59
13612;BME280;6877;51.436;6.774;2023-04-26T06:11:24;101440.69;;;6.16;79.36
13612;BME280;6877;51.436;6.774;2023-04-26T06:13:51;101443.47;;;6.33;79.82
13612;BME280;6877;51.436;6.774;2023-04-26T06:16:23;101455.06;;;6.70;78.41
13612;BME280;6877;51.436;6.774;2023-04-26T06:18:54;101451.00;;;7.04;76.94
13612;BME280;6877;51.436;6.774;2023-04-26T06:21:21;101455.56;;;7.39;75.14
13612;BME280;6877;51.436;6.774;2023-04-26T06:23:52;101454.75;;;7.46;72.88
13612;BME280;6877;51.436;6.774;2023-04-26T06:26:23;101454.84;;;7.60;73.27
13612;BME280;6877;51.436;6.774;2023-04-26T06:28:50;101458.44;;;7.89;71.81
13612;BME280;6877;51.436;6.774;2023-04-26T06:31:21;101457.66;;;8.24;69.98
13612;BME280;6877;51.436;6.774;2023-04-26T06:33:48;101462.97;;;8.58;69.18
13612;BME280;6877;51.436;6.774;2023-04-26T06:36:14;101465.59;;;9.12;66.74
13612;BME280;6877;51.436;6.774;2023-04-26T06:38:41;101470.75;;;9.39;64.82
13612;BME280;6877;51.436;6.774;2023-04-26T06:41:07;101465.50;;;9.48;63.04
13612;BME280;6877;51.436;6.774;2023-04-26T06:43:34;101468.19;;;9.24;63.15
13612;BME280;6877;51.436;6.774;2023-04-26T06:46:05;101462.97;;;9.09;63.08
13612;BME280;6877;51.436;6.774;2023-04-26T06:48:31;101464.69;;;9.19;63.00
13612;BME280;6877;51.436;6.774;2023-04-26T06:50:58;101463.78;;;9.35;62.99
13612;BME280;6877;51.436;6.774;2023-04-26T06:53:29;101460.28;;;9.42;62.02
13612;BME280;6877;51.436;6.774;2023-04-26T06:56:01;101459.41;;;9.51;61.81
13612;BME280;6877;51.436;6.774;2023-04-26T06:58:28;101461.19;;;9.37;61.50
13612;BME280;6877;51.436;6.774;2023-04-26T07:00:59;101451.53;;;9.66;61.56
13612;BME280;6877;51.436;6.774;2023-04-26T07:03:31;101461.75;;;10.17;59.34
13612;BME280;6877;51.436;6.774;2023-04-26T07:05:57;101461.19;;;11.01;57.62
13612;BME280;6877;51.436;6.774;2023-04-26T07:08:24;101457.88;;;12.37;53.96
13612;BME280;6877;51.436;6.774;2023-04-26T07:10:56;101464.66;;;13.54;49.85
13612;BME280;6877;51.436;6.774;2023-04-26T07:13:22;101467.63;;;14.22;48.09
13612;BME280;6877;51.436;6.774;2023-04-26T07:15:49;101475.41;;;14.27;45.32
13612;BME280;6877;51.436;6.774;2023-04-26T07:18:21;101469.06;;;13.97;45.37
13612;BME280;6877;51.436;6.774;2023-04-26T07:20:47;101468.53;;;13.79;45.50
13612;BME280;6877;51.436;6.774;2023-04-26T07:23:13;101460.47;;;13.88;45.04
13612;BME280;6877;51.436;6.774;2023-04-26T07:25:40;101461.78;;;14.48;44.18
13612;BME280;6877;51.436;6.774;2023-04-26T07:28:06;101470.09;;;15.04;42.41
13612;BME280;6877;51.436;6.774;2023-04-26T07:30:33;101465.44;;;14.80;40.71
13612;BME280;6877;51.436;6.774;2023-04-26T07:33:00;101467.38;;;14.72;41.38
13612;BME280;6877;51.436;6.774;2023-04-26T07:35:32;101467.09;;;15.18;39.72
13612;BME280;6877;51.436;6.774;2023-04-26T07:38:00;101469.75;;;15.51;39.14
13612;BME280;6877;51.436;6.774;2023-04-26T07:40:32;101469.03;;;15.44;38.30
13612;BME280;6877;51.436;6.774;2023-04-26T07:42:58;101469.56;;;14.54;39.41
13612;BME280;6877;51.436;6.774;2023-04-26T07:45:25;101472.50;;;14.00;41.04
13612;BME280;6877;51.436;6.774;2023-04-26T07:47:51;101468.13;;;13.99;41.34
13612;BME280;6877;51.436;6.774;2023-04-26T07:50:18;101471.81;;;14.31;40.61
13612;BME280;6877;51.436;6.774;2023-04-26T07:52:45;101470.56;;;14.84;39.17
13612;BME280;6877;51.436;6.774;2023-04-26T07:55:12;101469.25;;;15.35;38.79
13612;BME280;6877;51.436;6.774;2023-04-26T07:57:38;101471.81;;;15.38;37.21
13612;BME280;6877;51.436;6.774;2023-04-26T08:00:05;101472.09;;;14.95;37.66
13612;BME280;6877;51.436;6.774;2023-04-26T08:02:40;101465.94;;;14.58;38.39
13612;BME280;6877;51.436;6.774;2023-04-26T08:05:12;101472.81;;;15.34;37.90
13612;BME280;6877;51.436;6.774;2023-04-26T08:07:39;101465.47;;;17.19;35.16
13612;BME280;6877;51.436;6.774;2023-04-26T08:10:06;101468.53;;;17.81;33.16
13612;BME280;6877;51.436;6.774;2023-04-26T08:12:38;101464.84;;;17.86;33.08
13612;BME280;6877;51.436;6.774;2023-04-26T08:15:04;101455.97;;;18.10;31.71
13612;BME280;6877;51.436;6.774;2023-04-26T08:17:36;101463.31;;;18.69;31.43
13612;BME280;6877;51.436;6.774;2023-04-26T08:20:08;101456.69;;;20.02;29.49
13612;BME280;6877;51.436;6.774;2023-04-26T08:22:34;101468.41;;;20.72;28.25
13612;BME280;6877;51.436;6.774;2023-04-26T08:25:06;101468.16;;;19.63;28.75
13612;BME280;6877;51.436;6.774;2023-04-26T08:27:37;101473.53;;;18.35;30.24
13612;BME280;6877;51.436;6.774;2023-04-26T08:30:05;101460.28;;;19.62;29.09
13612;BME280;6877;51.436;6.774;2023-04-26T08:32:32;101464.72;;;20.20;27.17
13612;BME280;6877;51.436;6.774;2023-04-26T08:35:05;101471.91;;;18.54;28.60
13612;BME280;6877;51.436;6.774;2023-04-26T08:37:32;101476.53;;;18.71;29.12
13612;BME280;6877;51.436;6.774;2023-04-26T08:39:58;101469.97;;;20.21;27.85
13612;BME280;6877;51.436;6.774;2023-04-26T08:42:26;101481.25;;;21.84;26.02
13612;BME280;6877;51.436;6.774;2023-04-26T08:45:00;101478.19;;;22.08;24.42
13612;BME280;6877;51.436;6.774;2023-04-26T08:47:41;101473.03;;;22.05;24.37
13612;BME280;6877;51.436;6.774;2023-04-26T08:50:10;101475.31;;;22.28;24.22
13612;BME280;6877;51.436;6.774;2023-04-26T08:52:38;101483.91;;;22.33;23.54
13612;BME280;6877;51.436;6.774;2023-04-26T08:55:11;101479.59;;;21.31;23.79
13612;BME280;6877;51.436;6.774;2023-04-26T08:57:39;101477.84;;;20.04;25.17
13612;BME280;6877;51.436;6.774;2023-04-26T09:00:12;101475.63;;;19.55;25.09
13612;BME280;6877;51.436;6.774;2023-04-26T09:02:40;101470.47;;;18.00;27.53
13612;BME280;6877;51.436;6.774;2023-04-26T09:05:08;101472.09;;;17.30;28.86
13612;BME280;6877;51.436;6.774;2023-04-26T09:07:46;101467.59;;;15.96;30.51
13612;BME280;6877;51.436;6.774;2023-04-26T09:10:16;101477.13;;;14.68;32.42
13612;BME280;6877;51.436;6.774;2023-04-26T09:12:44;101472.75;;;13.88;33.93
13612;BME280;6877;51.436;6.774;2023-04-26T09:15:16;101472.44;;;13.10;35.65
13612;BME280;6877;51.436;6.774;2023-04-26T09:17:42;101469.78;;;12.59;36.58
13612;BME280;6877;51.436;6.774;2023-04-26T09:22:43;101470.69;;;12.57;37.38
13612;BME280;6877;51.436;6.774;2023-04-26T09:25:27;101474.94;;;12.65;37.28
13612;BME280;6877;51.436;6.774;2023-04-26T09:27:53;101467.91;;;12.67;37.72
13612;BME280;6877;51.436;6.774;2023-04-26T09:30:20;101464.00;;;12.93;37.81
13612;BME280;6877;51.436;6.774;2023-04-26T09:32:55;101469.66;;;14.48;35.38
13612;BME280;6877;51.436;6.774;2023-04-26T09:38:11;101469.75;;;20.07;27.30
13612;BME280;6877;51.436;6.774;2023-04-26T09:40:45;101479.72;;;22.75;23.72
13612;BME280;6877;51.436;6.774;2023-04-26T09:43:13;101475.56;;;24.32;21.77
13612;BME280;6877;51.436;6.774;2023-04-26T09:48:16;101468.31;;;24.19;20.97
13612;BME280;6877;51.436;6.774;2023-04-26T09:50:45;101454.97;;;23.48;21.66
13612;BME280;6877;51.436;6.774;2023-04-26T09:56:14;101463.19;;;25.10;20.34
13612;BME280;6877;51.436;6.774;2023-04-26T10:01:18;101455.03;;;24.18;20.23
13612;BME280;6877;51.436;6.774;2023-04-26T10:03:45;101455.41;;;24.26;20.14
13612;BME280;6877;51.436;6.774;2023-04-26T10:06:17;101451.16;;;23.95;20.23
13612;BME280;6877;51.436;6.774;2023-04-26T10:08:44;101452.16;;;22.60;21.39
13612;BME280;6877;51.436;6.774;2023-04-26T10:11:10;101457.50;;;22.60;21.57
13612;BME280;6877;51.436;6.774;2023-04-26T10:13:40;101460.91;;;23.53;20.65
13612;BME280;6877;51.436;6.774;2023-04-26T10:16:08;101457.47;;;22.44;21.33
13612;BME280;6877;51.436;6.774;2023-04-26T10:18:37;101456.69;;;21.79;22.22
13612;BME280;6877;51.436;6.774;2023-04-26T10:21:20;101448.69;;;21.79;21.89
13612;BME280;6877;51.436;6.774;2023-04-26T10:23:48;101445.53;;;19.94;24.29
13612;BME280;6877;51.436;6.774;2023-04-26T10:26:54;101445.19;;;18.59;25.93
13612;BME280;6877;51.436;6.774;2023-04-26T10:29:24;101443.19;;;17.49;27.42
13612;BME280;6877;51.436;6.774;2023-04-26T10:34:30;101439.28;;;17.11;27.90
13612;BME280;6877;51.436;6.774;2023-04-26T10:37:15;101430.63;;;17.56;27.36
13612;BME280;6877;51.436;6.774;2023-04-26T10:39:44;101436.69;;;18.72;25.48
13612;BME280;6877;51.436;6.774;2023-04-26T10:42:25;101434.44;;;18.85;25.37
13612;BME280;6877;51.436;6.774;2023-04-26T10:44:59;101438.06;;;18.17;26.34
13612;BME280;6877;51.436;6.774;2023-04-26T10:47:30;101435.56;;;17.42;27.42
13612;BME280;6877;51.436;6.774;2023-04-26T10:52:27;101435.50;;;17.92;26.93
13612;BME280;6877;51.436;6.774;2023-04-26T10:57:21;101429.06;;;18.43;25.80
13612;BME280;6877;51.436;6.774;2023-04-26T11:03:04;101425.94;;;16.89;27.91
13612;BME280;6877;51.436;6.774;2023-04-26T11:05:40;101426.97;;;16.57;28.58
13612;BME280;6877;51.436;6.774;2023-04-26T11:08:20;101424.44;;;15.68;29.97
13612;BME280;6877;51.436;6.774;2023-04-26T11:10:56;101423.03;;;14.89;31.20
13612;BME280;6877;51.436;6.774;2023-04-26T11:13:23;101425.25;;;14.33;32.49
13612;BME280;6877;51.436;6.774;2023-04-26T11:16:00;101418.78;;;13.68;33.67
13612;BME280;6877;51.436;6.774;2023-04-26T11:18:31;101426.59;;;13.27;34.75
13612;BME280;6877;51.436;6.774;2023-04-26T11:20:58;101423.78;;;13.37;34.95
13612;BME280;6877;51.436;6.774;2023-04-26T11:23:29;101415.66;;;13.50;34.86
13612;BME280;6877;51.436;6.774;2023-04-26T11:26:01;101413.72;;;13.59;34.99
13612;BME280;6877;51.436;6.774;2023-04-26T11:28:29;101418.84;;;13.65;34.62
13612;BME280;6877;51.436;6.774;2023-04-26T11:30:56;101414.69;;;13.54;34.28
13612;BME280;6877;51.436;6.774;2023-04-26T11:33:24;101408.41;;;13.62;33.76
13612;BME280;6877;51.436;6.774;2023-04-26T11:35:51;101410.06;;;13.66;33.53
13612;BME280;6877;51.436;6.774;2023-04-26T11:38:22;101406.59;;;13.64;33.44
13612;BME280;6877;51.436;6.774;2023-04-26T11:40:56;101404.47;;;13.82;33.55
13612;BME280;6877;51.436;6.774;2023-04-26T11:43:33;101408.88;;;13.80;33.33
13612;BME280;6877;51.436;6.774;2023-04-26T11:45:59;101403.88;;;13.69;33.52
13612;BME280;6877;51.436;6.774;2023-04-26T11:48:27;101400.50;;;13.62;33.76
13612;BME280;6877;51.436;6.774;2023-04-26T11:50:58;101403.69;;;13.35;34.84
13612;BME280;6877;51.436;6.774;2023-04-26T11:53:40;101400.53;;;13.14;35.03
13612;BME280;6877;51.436;6.774;2023-04-26T11:58:48;101402.69;;;12.92;36.02
13612;BME280;6877;51.436;6.774;2023-04-26T12:01:26;101411.41;;;12.96;36.25
13612;BME280;6877;51.436;6.774;2023-04-26T12:04:01;101399.72;;;13.11;36.16
13612;BME280;6877;51.436;6.774;2023-04-26T12:06:41;101397.13;;;13.56;34.93
13612;BME280;6877;51.436;6.774;2023-04-26T12:09:08;101408.38;;;14.04;34.55
13612;BME280;6877;51.436;6.774;2023-04-26T12:11:39;101403.13;;;14.77;33.03
13612;BME280;6877;51.436;6.774;2023-04-26T12:14:14;101406.50;;;15.17;31.94
13612;BME280;6877;51.436;6.774;2023-04-26T12:16:41;101412.72;;;15.14;31.60
13612;BME280;6877;51.436;6.774;2023-04-26T12:19:08;101409.53;;;15.01;31.53
13612;BME280;6877;51.436;6.774;2023-04-26T12:21:42;101408.16;;;14.88;31.82
13612;BME280;6877;51.436;6.774;2023-04-26T12:26:46;101405.78;;;14.01;33.73
13612;BME280;6877;51.436;6.774;2023-04-26T12:29:14;101395.34;;;13.98;33.29
13612;BME280;6877;51.436;6.774;2023-04-26T12:31:40;101403.66;;;14.19;32.61
13612;BME280;6877;51.436;6.774;2023-04-26T12:34:06;101396.94;;;14.43;30.84
13612;BME280;6877;51.436;6.774;2023-04-26T12:36:33;101386.69;;;14.32;30.78
13612;BME280;6877;51.436;6.774;2023-04-26T12:39:00;101391.81;;;14.36;31.06
13612;BME280;6877;51.436;6.774;2023-04-26T12:41:30;101395.16;;;14.45;31.36
13612;BME280;6877;51.436;6.774;2023-04-26T12:43:56;101389.19;;;14.36;30.92
13612;BME280;6877;51.436;6.774;2023-04-26T12:46:23;101389.69;;;14.54;31.00
13612;BME280;6877;51.436;6.774;2023-04-26T12:48:52;101401.97;;;14.89;30.71
13612;BME280;6877;51.436;6.774;2023-04-26T12:51:19;101400.41;;;14.82;30.22
13612;BME280;6877;51.436;6.774;2023-04-26T12:53:45;101395.16;;;14.80;30.06
13612;BME280;6877;51.436;6.774;2023-04-26T12:56:17;101400.09;;;14.58;30.21
13612;BME280;6877;51.436;6.774;2023-04-26T12:58:44;101399.47;;;14.47;30.66
13612;BME280;6877;51.436;6.774;2023-04-26T13:01:12;101399.34;;;14.53;30.50
13612;BME280;6877;51.436;6.774;2023-04-26T13:03:44;101400.22;;;14.54;30.25
13612;BME280;6877;51.436;6.774;2023-04-26T13:06:15;101401.53;;;14.34;30.56
13612;BME280;6877;51.436;6.774;2023-04-26T13:08:42;101402.25;;;14.02;30.49
13612;BME280;6877;51.436;6.774;2023-04-26T13:11:08;101400.63;;;13.56;30.83
13612;BME280;6877;51.436;6.774;2023-04-26T13:13:40;101402.16;;;13.21;31.83
13612;BME280;6877;51.436;6.774;2023-04-26T13:16:06;101409.63;;;12.95;32.55
13612;BME280;6877;51.436;6.774;2023-04-26T13:18:37;101404.28;;;13.01;33.44
13612;BME280;6877;51.436;6.774;2023-04-26T13:21:04;101402.44;;;13.06;34.14
13612;BME280;6877;51.436;6.774;2023-04-26T13:23:31;101390.84;;;13.16;34.60
13612;BME280;6877;51.436;6.774;2023-04-26T13:26:02;101388.94;;;13.28;34.60
13612;BME280;6877;51.436;6.774;2023-04-26T13:28:28;101388.69;;;13.40;34.70
13612;BME280;6877;51.436;6.774;2023-04-26T13:31:00;101395.50;;;13.49;34.47
13612;BME280;6877;51.436;6.774;2023-04-26T13:33:26;101389.06;;;13.63;33.98
13612;BME280;6877;51.436;6.774;2023-04-26T13:35:53;101392.22;;;13.81;33.44
13612;BME280;6877;51.436;6.774;2023-04-26T13:38:19;101395.06;;;13.70;33.32